Time;durP1;ratioP1;P1;durP2;ratioP2;P2;SDS_P1;SDS_P2;PMS_P1;PMS_P2;Temp;Humidity;BMP_temperature;BMP_pressure;BME280_temperature;BME280_humidity;BME280_pressure;Samples;Min_cycle;Max_cycle;Signal;HPM_P1;HPM_P2
2022/09/05 00:02:01;;;;;;;7.90;5.40;;;;;;;13.84;86.78;98725.96;109825;1264;22628;-89
2022/09/05 00:05:05;;;;;;;7.50;5.50;;;;;;;13.82;86.87;98726.00;109728;1276;22538;-86
2022/09/05 00:08:18;;;;;;;8.20;5.70;;;;;;;13.80;86.56;98728.84;109779;1267;22734;-88
2022/09/05 00:11:34;;;;;;;7.50;6.10;;;;;;;13.76;86.89;98728.50;109784;1276;22420;-87
2022/09/05 00:15:00;;;;;;;8.10;5.90;;;;;;;13.72;86.91;98727.91;109677;1264;22683;31
2022/09/05 00:21:37;;;;;;;6.10;5.50;;;;;;;13.79;86.58;98732.17;109667;1265;22566;-88
2022/09/05 00:25:21;;;;;;;7.30;6.10;;;;;;;13.80;86.65;98729.67;109810;1264;22593;-87
2022/09/05 00:31:55;;;;;;;7.60;6.80;;;;;;;13.74;86.32;98716.57;109554;1278;22693;-91
2022/09/05 00:34:42;;;;;;;6.00;5.40;;;;;;;13.75;86.21;98715.39;109626;1277;22924;-90
2022/09/05 00:42:17;;;;;;;7.30;6.70;;;;;;;13.71;86.04;98714.23;109211;1277;22535;-91
2022/09/05 00:45:07;;;;;;;7.20;6.30;;;;;;;13.63;85.85;98711.88;109366;1278;22142;-93
2022/09/05 00:52:56;;;;;;;8.40;6.00;;;;;;;13.45;85.40;98709.16;109386;1278;22783;-92
2022/09/05 00:59:21;;;;;;;7.90;7.10;;;;;;;13.34;85.26;98706.70;108642;1279;22569;-91
2022/09/05 01:02:40;;;;;;;7.80;7.00;;;;;;;13.25;85.37;98705.59;108509;1280;24216;-93
2022/09/05 01:05:44;;;;;;;7.90;6.70;;;;;;;13.15;85.25;98709.63;108446;1279;22606;-92
2022/09/05 01:09:06;;;;;;;8.70;6.70;;;;;;;13.12;85.36;98710.45;107692;1278;22879;-93
2022/09/05 01:11:56;;;;;;;9.50;6.50;;;;;;;13.06;85.17;98707.72;108290;1279;23939;-92
2022/09/05 01:15:00;;;;;;;8.70;7.50;;;;;;;13.03;85.31;98703.48;107934;1280;22496;-91
2022/09/05 01:18:14;;;;;;;7.90;6.90;;;;;;;12.98;85.17;98699.85;108249;1281;23541;-94
2022/09/05 01:24:47;;;;;;;7.70;6.70;;;;;;;12.82;85.40;98698.64;108209;1277;22775;-95
2022/09/05 01:27:55;;;;;;;7.70;6.80;;;;;;;12.81;85.23;98704.02;108207;1276;22476;-93
2022/09/05 01:34:36;;;;;;;8.80;7.10;;;;;;;12.73;85.12;98711.09;107948;1276;23526;-93
2022/09/05 01:37:41;;;;;;;8.00;7.00;;;;;;;12.64;85.30;98709.43;107674;1276;22646;-94
2022/09/05 01:40:43;;;;;;;8.60;7.00;;;;;;;12.56;85.37;98709.55;108165;1276;22649;-92
2022/09/05 01:50:39;;;;;;;7.70;6.90;;;;;;;12.42;85.82;98709.14;107898;1276;24310;-94
2022/09/05 01:53:45;;;;;;;8.70;7.10;;;;;;;12.38;86.08;98707.25;108141;1276;22588;-94
2022/09/05 01:56:38;;;;;;;9.30;6.90;;;;;;;12.32;86.04;98703.16;108399;1277;22590;-94
2022/09/05 01:59:40;;;;;;;10.50;6.60;;;;;;;12.30;85.88;98704.55;109215;1276;22723;-93
2022/09/05 02:02:46;;;;;;;8.20;6.30;;;;;;;12.31;86.10;98706.00;109146;1275;22661;-92
2022/09/05 02:09:28;;;;;;;7.90;6.90;;;;;;;12.32;86.80;98704.96;108112;1274;25750;-93
2022/09/05 02:12:14;;;;;;;7.90;7.10;;;;;;;12.30;86.77;98704.22;108130;1274;22510;-92
2022/09/05 02:18:51;;;;;;;9.30;6.80;;;;;;;12.43;86.84;98711.80;108543;1276;22688;-91
2022/09/05 02:24:45;;;;;;;8.90;7.30;;;;;;;12.60;86.77;98713.64;108431;1274;22507;-92
2022/09/05 02:27:44;;;;;;;8.10;7.30;;;;;;;12.62;86.68;98716.34;108686;1274;25373;-93
2022/09/05 02:34:08;;;;;;;8.00;6.60;;;;;;;12.69;86.68;98716.98;108114;1276;24100;-94
2022/09/05 02:37:14;;;;;;;9.30;7.40;;;;;;;12.75;86.71;98716.31;108330;1277;23900;-94
2022/09/05 02:40:31;;;;;;;8.60;7.30;;;;;;;12.77;86.71;98716.73;108922;1276;22584;-92
2022/09/05 02:43:47;;;;;;;11.40;7.90;;;;;;;12.76;86.48;98722.15;108726;1277;25232;-95
2022/09/05 02:47:15;;;;;;;;;;;;;;;12.73;86.45;98719.70;108886;1277;22634;-93
2022/09/05 02:53:37;;;;;;;7.60;6.80;;;;;;;12.69;86.08;98719.64;108478;1276;22592;-94
2022/09/05 03:00:20;;;;;;;;;;;;;;;12.58;86.18;98719.46;108751;1276;23877;-91
2022/09/05 03:03:28;;;;;;;9.50;7.10;;;;;;;12.54;86.17;98721.37;108762;1276;22546;-93
2022/09/05 03:06:19;;;;;;;7.80;6.90;;;;;;;12.52;86.20;98723.49;109208;1276;23843;-93
2022/09/05 03:09:25;;;;;;;9.70;7.90;;;;;;;12.51;86.21;98722.17;108994;1276;22563;-91
2022/09/05 03:12:32;;;;;;;8.60;7.70;;;;;;;12.46;86.26;98725.85;109017;1276;22603;-88
2022/09/05 03:15:52;;;;;;;8.50;7.40;;;;;;;12.42;86.32;98730.02;109265;1276;23240;-91
2022/09/05 03:22:12;;;;;;;9.40;7.60;;;;;;;12.44;85.99;98724.95;108935;1276;22566;-93
2022/09/05 03:25:10;;;;;;;;;;;;;;;12.40;85.98;98728.08;109112;1276;22848;-92
2022/09/05 03:28:14;;;;;;;8.70;7.90;;;;;;;12.27;86.04;98727.27;109038;1276;25405;-91
2022/09/05 03:38:07;;;;;;;10.50;7.50;;;;;;;11.84;85.88;98732.23;109442;1274;22535;-93
2022/09/05 03:41:03;;;;;;;10.10;7.20;;;;;;;11.75;86.00;98737.17;109498;1274;22574;-93
2022/09/05 03:43:55;;;;;;;11.00;8.50;;;;;;;11.65;86.23;98733.34;109115;1274;22547;-91
2022/09/05 03:47:06;;;;;;;10.60;7.70;;;;;;;11.54;86.02;98735.77;108987;1274;22582;-90
2022/09/05 03:53:42;;;;;;;9.50;7.90;;;;;;;11.36;86.49;98737.59;109553;1264;23119;31
2022/09/05 04:00:32;;;;;;;10.60;8.10;;;;;;;11.24;86.76;98742.39;108923;1277;23736;-93
2022/09/05 04:03:26;;;;;;;13.00;8.50;;;;;;;11.20;86.83;98748.04;108889;1277;22520;-93
2022/09/05 04:10:04;;;;;;;8.70;7.40;;;;;;;11.20;86.96;98746.45;108989;1279;23472;-93
2022/09/05 04:16:15;;;;;;;8.80;8.00;;;;;;;11.26;87.50;98744.79;109032;1276;22688;-93
2022/09/05 04:19:20;;;;;;;9.30;7.50;;;;;;;11.25;87.80;98751.13;108770;1276;22557;-92
2022/09/05 04:22:14;;;;;;;9.70;8.70;;;;;;;11.25;87.92;98751.82;108840;1276;23839;-92
2022/09/05 04:25:00;;;;;;;10.40;7.90;;;;;;;11.26;87.76;98754.66;109259;1276;22585;-90
2022/09/05 04:31:36;;;;;;;9.60;8.70;;;;;;;11.35;87.94;98768.54;109239;1274;22577;-94
2022/09/05 04:34:51;;;;;;;8.70;7.80;;;;;;;11.40;88.04;98769.14;109185;1274;24244;-91
2022/09/05 04:37:46;;;;;;;9.60;7.90;;;;;;;11.48;87.96;98770.09;109334;1274;22571;-92
2022/09/05 04:40:36;;;;;;;10.40;7.40;;;;;;;11.57;88.02;98773.91;109196;1276;22680;-92
2022/09/05 04:43:34;;;;;;;9.40;7.40;;;;;;;11.64;88.08;98778.30;109069;1274;22661;-94
2022/09/05 04:46:29;;;;;;;9.60;7.30;;;;;;;11.65;88.16;98776.04;109374;1274;22558;-91
2022/09/05 04:49:23;;;;;;;10.70;7.70;;;;;;;11.66;88.28;98781.54;109290;1276;22973;-93
2022/09/05 05:08:57;;;;;;;7.70;6.50;;;;;;;12.39;88.82;98798.48;108731;1276;22544;-93
2022/09/05 05:12:01;;;;;;;;;;;;;;;12.54;88.89;98805.16;109010;1274;22990;-92
2022/09/05 05:15:20;;;;;;;13.00;9.20;;;;;;;12.70;88.80;98809.45;108508;1273;24181;-94
2022/09/05 05:18:19;;;;;;;11.20;10.10;;;;;;;12.85;88.51;98813.32;108113;1276;22558;-93
2022/09/05 05:21:27;;;;;;;12.60;10.80;;;;;;;12.98;88.94;98817.20;108322;1274;22809;-92
2022/09/05 05:24:16;;;;;;;11.60;10.40;;;;;;;13.11;88.89;98819.14;107872;1274;23126;-92
2022/09/05 05:27:29;;;;;;;13.30;10.60;;;;;;;13.21;88.73;98822.94;108603;1274;25371;-93
2022/09/05 05:30:29;;;;;;;12.00;10.50;;;;;;;13.36;88.85;98826.42;109133;1274;22645;-89
2022/09/05 05:33:25;;;;;;;11.70;9.40;;;;;;;13.51;88.81;98825.50;108851;1274;22688;-92
2022/09/05 05:36:22;;;;;;;9.50;8.50;;;;;;;13.61;88.51;98832.48;108732;1274;22715;-95
2022/09/05 05:39:26;;;;;;;11.70;8.80;;;;;;;13.68;88.20;98836.06;108731;1274;22608;-94
2022/09/05 05:42:16;;;;;;;11.00;7.90;;;;;;;13.71;88.01;98832.17;107927;1274;23337;-93
2022/09/05 05:45:14;;;;;;;10.10;7.00;;;;;;;13.76;87.93;98836.95;109485;1274;22955;-91
2022/09/05 05:48:04;;;;;;;10.50;7.50;;;;;;;13.82;88.00;98836.91;109081;1274;23542;-92
2022/09/05 05:51:15;;;;;;;8.80;7.30;;;;;;;13.84;87.85;98840.54;108459;1274;22562;-92
2022/09/05 05:54:36;;;;;;;9.40;8.00;;;;;;;13.91;88.08;98842.48;108616;1274;23942;-93
2022/09/05 05:57:22;;;;;;;9.90;7.20;;;;;;;13.97;87.99;98842.70;108729;1274;22605;-95
2022/09/05 06:00:36;;;;;;;8.80;7.10;;;;;;;14.04;87.72;98837.05;108425;1274;22637;-94
2022/09/05 06:03:41;;;;;;;8.70;7.60;;;;;;;14.14;87.56;98835.42;108296;1274;22612;-93
2022/09/05 06:06:37;;;;;;;10.10;9.00;;;;;;;14.22;87.89;98835.76;108064;1274;22628;-94
2022/09/05 06:13:14;;;;;;;11.00;7.60;;;;;;;14.45;87.48;98846.66;108240;1276;23991;-92
2022/09/05 06:16:31;;;;;;;15.80;7.10;;;;;;;14.55;86.88;98840.52;107963;1278;22712;-93
2022/09/05 06:19:43;;;;;;;10.30;7.40;;;;;;;14.63;86.65;98839.56;107833;1278;22659;-92
2022/09/05 06:23:12;;;;;;;9.10;7.30;;;;;;;14.72;86.76;98842.19;108210;1278;22735;-91
2022/09/05 06:26:43;;;;;;;8.50;7.20;;;;;;;14.85;86.66;98837.91;107748;1278;22574;-93
2022/09/05 06:29:37;;;;;;;8.70;6.60;;;;;;;14.96;86.50;98835.98;108136;1279;22625;-92
2022/09/05 06:33:02;;;;;;;7.60;6.10;;;;;;;15.10;85.92;98839.66;107824;1277;22625;-92
2022/09/05 06:36:31;;;;;;;7.60;6.10;;;;;;;15.24;85.60;98840.04;107751;1278;26616;-91
2022/09/05 06:39:25;;;;;;;7.80;6.70;;;;;;;15.37;85.11;98839.65;107335;1278;25292;-94
2022/09/05 06:42:16;;;;;;;7.20;5.70;;;;;;;15.44;84.82;98843.89;108064;1278;22496;-91
2022/09/05 06:45:51;;;;;;;7.20;6.30;;;;;;;15.55;84.37;98842.98;108171;1279;22826;-93
2022/09/05 06:48:59;;;;;;;8.30;6.00;;;;;;;15.69;84.74;98848.41;108026;1278;22598;-92
2022/09/05 06:52:44;;;;;;;6.00;5.40;;;;;;;15.87;84.36;98849.39;107792;1278;22668;-91
2022/09/05 06:56:06;;;;;;;10.50;5.70;;;;;;;16.04;83.51;98853.70;107942;1278;22695;-91
2022/09/05 06:59:02;;;;;;;8.40;6.20;;;;;;;16.10;83.24;98859.19;108539;1277;25479;-93
2022/09/05 07:02:13;;;;;;;11.40;6.30;;;;;;;16.18;83.34;98863.52;108126;1278;24202;-93
2022/09/05 07:05:28;;;;;;;9.00;6.60;;;;;;;16.23;82.14;98859.59;107643;1278;22561;-90
2022/09/05 07:08:33;;;;;;;7.80;7.00;;;;;;;16.32;82.37;98863.79;108053;1278;22576;-92
2022/09/05 07:11:44;;;;;;;8.40;6.60;;;;;;;16.43;81.89;98867.59;108446;1278;23945;-93
2022/09/05 07:15:29;;;;;;;14.00;7.40;;;;;;;16.57;81.43;98865.08;108250;1279;22651;-90
2022/09/05 07:18:14;;;;;;;11.50;7.70;;;;;;;16.70;81.24;98866.17;108096;1278;22536;-93
2022/09/05 07:24:50;;;;;;;14.60;6.80;;;;;;;16.97;81.38;98866.42;107780;1276;22946;-94
2022/09/05 07:27:53;;;;;;;10.40;6.80;;;;;;;17.11;80.36;98870.02;107027;1275;25224;-92
2022/09/05 07:31:22;;;;;;;12.50;6.30;;;;;;;17.19;80.07;98873.80;107364;1275;22581;-92
2022/09/05 07:34:33;;;;;;;7.30;6.50;;;;;;;17.25;79.23;98868.25;107391;1274;22968;-89
2022/09/05 07:37:27;;;;;;;11.10;6.80;;;;;;;17.34;79.19;98869.51;108391;1274;22496;-91
2022/09/05 07:40:21;;;;;;;10.50;6.80;;;;;;;17.42;77.89;98871.02;107893;1274;22711;-91
2022/09/05 07:43:31;;;;;;;9.80;6.50;;;;;;;17.48;78.82;98871.02;107694;1274;26546;-94
2022/09/05 07:46:22;;;;;;;9.20;7.00;;;;;;;17.62;78.87;98874.23;107344;1274;22623;-92
2022/09/05 07:49:13;;;;;;;10.40;7.10;;;;;;;17.72;77.58;98874.58;107326;1274;25388;-93
2022/09/05 07:52:09;;;;;;;10.20;7.00;;;;;;;17.74;76.94;98885.39;107020;1276;22685;-94
2022/09/05 07:55:17;;;;;;;;;;;;;;;17.80;76.85;98886.46;106971;1274;25209;-92
2022/09/05 07:58:38;;;;;;;8.20;6.30;;;;;;;17.88;76.25;98889.02;107360;1274;22701;-94
2022/09/05 08:01:24;;;;;;;11.70;7.30;;;;;;;17.91;75.80;98889.37;107290;1274;22618;-93
2022/09/05 08:04:28;;;;;;;10.80;7.20;;;;;;;17.99;75.20;98889.89;107384;1274;22635;-91
2022/09/05 08:07:23;;;;;;;9.20;7.80;;;;;;;18.10;75.08;98886.90;107059;1274;26616;-91
2022/09/05 08:10:34;;;;;;;8.50;7.10;;;;;;;18.20;75.25;98889.92;107091;1274;23077;-92
2022/09/05 08:13:44;;;;;;;10.60;7.10;;;;;;;18.25;72.56;98889.81;107013;1275;24398;-91
2022/09/05 08:16:33;;;;;;;7.70;6.40;;;;;;;18.25;72.88;98887.70;107684;1276;25071;-92
2022/09/05 08:19:37;;;;;;;10.10;6.80;;;;;;;18.34;73.41;98886.61;107141;1277;23958;-90
2022/09/05 08:22:29;;;;;;;10.60;7.20;;;;;;;18.46;72.64;98882.28;107052;1277;22610;-93
2022/09/05 08:25:21;;;;;;;9.00;6.60;;;;;;;18.53;72.31;98881.48;107184;1277;22611;-93
2022/09/05 08:28:22;;;;;;;10.20;6.30;;;;;;;18.64;71.24;98879.16;106890;1277;25367;-93
2022/09/05 08:31:20;;;;;;;8.70;6.40;;;;;;;18.68;71.08;98880.52;106762;1277;24218;-90
2022/09/05 08:34:14;;;;;;;7.00;6.20;;;;;;;18.76;70.32;98874.64;106873;1277;24210;-93
2022/09/05 08:37:02;;;;;;;8.40;6.40;;;;;;;18.85;71.14;98874.11;106860;1276;22628;-91
2022/09/05 08:39:52;;;;;;;14.10;6.10;;;;;;;18.93;68.88;98869.86;106980;1277;26567;-94
2022/09/05 08:43:37;;;;;;;8.70;6.50;;;;;;;19.01;69.04;98869.59;107091;1277;22664;-94
2022/09/05 08:46:56;;;;;;;10.00;6.30;;;;;;;19.09;67.89;98872.34;106141;1284;25597;-92
2022/09/05 08:50:04;;;;;;;8.80;6.10;;;;;;;19.15;68.31;98873.48;106435;1284;22593;-94
2022/09/05 08:52:55;;;;;;;10.40;6.00;;;;;;;19.28;67.74;98875.31;106793;1284;22845;-94
2022/09/05 08:55:59;;;;;;;9.30;6.10;;;;;;;19.34;67.19;98874.23;106567;1283;22885;-93
2022/09/05 08:59:05;;;;;;;7.40;5.90;;;;;;;19.41;66.95;98870.44;106625;1284;22662;-91
2022/09/05 09:02:16;;;;;;;7.60;5.70;;;;;;;19.54;66.72;98868.02;106914;1285;27065;-92
2022/09/05 09:05:43;;;;;;;7.70;5.60;;;;;;;19.69;66.53;98866.81;106353;1284;24379;-92
2022/09/05 09:09:22;;;;;;;7.10;5.60;;;;;;;19.76;64.31;98863.71;106226;1284;22724;-91
2022/09/05 09:12:10;;;;;;;8.00;5.80;;;;;;;19.79;65.04;98862.23;105938;1291;25458;-94
2022/09/05 09:15:40;;;;;;;9.30;5.50;;;;;;;19.88;65.34;98860.86;105649;1290;24200;-94
2022/09/05 09:18:43;;;;;;;10.50;5.50;;;;;;;20.02;64.62;98856.16;104805;1297;24239;-93
2022/09/05 09:21:53;;;;;;;7.50;5.20;;;;;;;20.08;63.41;98859.57;105130;1290;22613;-91
2022/09/05 09:25:03;;;;;;;10.30;5.40;;;;;;;20.11;63.93;98849.69;106436;1290;24242;-92
2022/09/05 09:28:35;;;;;;;9.00;4.90;;;;;;;20.23;63.57;98846.40;105812;1290;22592;-89
2022/09/05 09:31:54;;;;;;;;;;;;;;;20.38;63.22;98842.94;105238;1290;22646;-93
2022/09/05 09:34:51;;;;;;;10.10;5.00;;;;;;;20.48;63.28;98840.66;105394;1291;22722;-91
2022/09/05 09:37:58;;;;;;;8.80;5.30;;;;;;;20.61;62.15;98838.30;105717;1290;22696;-90
2022/09/05 09:41:19;;;;;;;6.70;5.00;;;;;;;20.68;61.37;98842.65;105048;1291;26591;-93
2022/09/05 09:44:26;;;;;;;6.70;4.60;;;;;;;20.74;61.12;98839.19;104999;1297;23986;-92
2022/09/05 09:47:16;;;;;;;7.60;4.60;;;;;;;20.87;61.30;98839.11;104960;1297;23316;-92
2022/09/05 09:50:28;;;;;;;11.20;5.20;;;;;;;21.00;61.34;98837.17;106199;1281;22601;-95
2022/09/05 09:53:33;;;;;;;9.10;4.70;;;;;;;21.15;60.85;98835.98;104822;1281;1602775;-85
2022/09/05 09:56:40;;;;;;;6.30;4.60;;;;;;;21.25;59.45;98835.86;105808;1281;22577;-91
2022/09/05 09:59:45;;;;;;;9.80;5.10;;;;;;;21.33;59.59;98831.81;106239;1281;23806;-92
2022/09/05 10:03:01;;;;;;;8.00;4.60;;;;;;;21.45;59.46;98835.58;106879;1281;22924;-90
2022/09/05 10:06:25;;;;;;;7.90;4.90;;;;;;;21.56;58.15;98840.73;106155;1281;22574;-93
2022/09/05 10:09:34;;;;;;;6.90;4.40;;;;;;;21.61;58.63;98834.20;105917;1281;22700;-91
2022/09/05 10:12:49;;;;;;;6.20;3.70;;;;;;;21.70;57.08;98830.08;105881;1281;22734;-90
2022/09/05 10:16:25;;;;;;;7.60;4.30;;;;;;;21.73;57.22;98830.78;105690;1283;22668;-92
2022/09/05 10:19:30;;;;;;;8.20;4.60;;;;;;;21.92;57.28;98828.08;105995;1277;22559;-92
2022/09/05 10:23:07;;;;;;;11.60;4.80;;;;;;;22.14;57.15;98826.00;106449;1277;23002;-93
2022/09/05 10:26:30;;;;;;;7.70;4.70;;;;;;;22.37;56.64;98828.55;106251;1277;25322;-91
2022/09/05 10:29:38;;;;;;;7.30;4.50;;;;;;;22.52;54.82;98818.02;106400;1277;22859;-92
2022/09/05 10:32:44;;;;;;;7.60;4.40;;;;;;;22.57;55.08;98817.52;106269;1277;22667;-92
2022/09/05 10:35:58;;;;;;;7.00;4.20;;;;;;;22.47;54.24;98817.42;106203;1277;25362;-93
2022/09/05 10:38:48;;;;;;;6.60;4.60;;;;;;;22.35;52.76;98818.47;106282;1277;22557;-93
2022/09/05 10:41:50;;;;;;;6.50;4.60;;;;;;;22.24;53.21;98813.64;106142;1277;25264;-92
2022/09/05 10:44:55;;;;;;;6.70;5.60;;;;;;;22.14;53.37;98814.64;106558;1277;23220;-92
2022/09/05 10:47:51;;;;;;;9.20;4.50;;;;;;;22.10;53.64;98814.36;106900;1276;22845;-92
2022/09/05 10:50:43;;;;;;;7.50;5.00;;;;;;;22.17;52.64;98816.04;106580;1277;22538;-92
2022/09/05 10:53:58;;;;;;;6.50;3.90;;;;;;;22.09;52.92;98816.06;106768;1277;25350;-90
2022/09/05 10:56:55;;;;;;;5.80;3.90;;;;;;;21.99;53.10;98817.04;106362;1280;22708;-88
2022/09/05 10:59:46;;;;;;;7.50;4.10;;;;;;;21.85;51.53;98814.23;107056;1277;22887;-92
2022/09/05 11:02:56;;;;;;;8.10;4.00;;;;;;;21.54;52.23;98815.85;107683;1277;22696;-92
2022/09/05 11:05:54;;;;;;;6.00;4.00;;;;;;;21.62;53.25;98813.84;106752;1277;22853;-90
2022/09/05 11:09:12;;;;;;;7.20;3.70;;;;;;;21.48;52.35;98812.98;107595;1277;22764;-92
2022/09/05 11:12:22;;;;;;;6.90;3.80;;;;;;;21.21;53.29;98812.45;107254;1277;22670;-92
2022/09/05 11:15:36;;;;;;;4.80;3.50;;;;;;;21.06;52.97;98806.57;106786;1276;22710;-90
2022/09/05 11:18:56;;;;;;;5.50;3.80;;;;;;;20.82;52.33;98801.48;106621;1276;22560;-93
2022/09/05 11:21:49;;;;;;;5.50;4.00;;;;;;;20.83;53.37;98801.42;106336;1277;25501;-93
2022/09/05 11:24:59;;;;;;;4.20;3.60;;;;;;;21.11;53.05;98800.77;106455;1274;22557;-90
2022/09/05 11:27:48;;;;;;;5.50;4.00;;;;;;;21.36;51.87;98794.69;106562;1274;22570;-92
2022/09/05 11:30:39;;;;;;;6.90;3.80;;;;;;;21.55;52.19;98794.41;106441;1274;24201;-92
2022/09/05 11:33:31;;;;;;;4.80;3.60;;;;;;;21.34;50.96;98793.39;106673;1274;22721;-92
2022/09/05 11:36:52;;;;;;;7.30;3.50;;;;;;;20.99;51.45;98795.19;106688;1274;22639;-93
2022/09/05 11:40:07;;;;;;;6.50;3.60;;;;;;;20.83;51.63;98791.21;106608;1274;24076;-91
2022/09/05 11:43:38;;;;;;;5.30;3.50;;;;;;;21.01;52.21;98788.98;106349;1274;22709;-91
2022/09/05 11:46:32;;;;;;;6.70;3.70;;;;;;;21.04;52.10;98785.86;106471;1274;22694;-91
2022/09/05 11:49:57;;;;;;;9.30;3.60;;;;;;;21.06;51.15;98788.25;106226;1274;22557;-90
2022/09/05 11:53:05;;;;;;;6.10;3.60;;;;;;;21.35;51.10;98782.70;106379;1282;24316;-90
2022/09/05 11:55:53;;;;;;;5.60;3.60;;;;;;;21.62;51.49;98779.70;106444;1282;27600;-90
2022/09/05 11:59:07;;;;;;;4.80;3.30;;;;;;;22.00;49.77;98775.76;105649;1282;25309;-91
2022/09/05 12:02:21;;;;;;;6.60;3.80;;;;;;;22.47;48.62;98776.17;105673;1282;22705;-91
2022/09/05 12:05:42;;;;;;;5.00;3.00;;;;;;;22.53;49.25;98772.77;106008;1282;25432;-92
2022/09/05 12:08:53;;;;;;;8.60;3.60;;;;;;;22.58;48.75;98773.52;105685;1282;22661;-90
2022/09/05 12:12:05;;;;;;;6.30;3.60;;;;;;;22.95;47.56;98775.45;105909;1282;22996;-93
2022/09/05 12:15:36;;;;;;;4.40;3.60;;;;;;;23.28;46.87;98773.16;105729;1283;25210;-91
2022/09/05 12:18:50;;;;;;;5.80;3.30;;;;;;;23.56;46.43;98767.60;105854;1282;24238;-91
2022/09/05 12:22:13;;;;;;;10.60;3.60;;;;;;;23.79;46.19;98764.91;106337;1282;24319;-92
2022/09/05 12:25:23;;;;;;;5.70;3.10;;;;;;;23.75;45.85;98767.89;105780;1282;22569;-93
2022/09/05 12:28:51;;;;;;;5.10;3.40;;;;;;;23.88;45.05;98767.73;106615;1274;22541;-91
2022/09/05 12:31:59;;;;;;;7.30;3.30;;;;;;;24.02;45.04;98761.85;106261;1276;24282;-90
2022/09/05 12:35:06;;;;;;;4.50;2.70;;;;;;;24.09;44.53;98755.50;106328;1274;24307;-90
2022/09/05 12:38:37;;;;;;;6.20;3.20;;;;;;;24.37;44.19;98757.16;106322;1274;22629;-92
2022/09/05 12:41:54;;;;;;;7.20;3.20;;;;;;;24.66;42.79;98750.92;106676;1274;22623;-93
2022/09/05 12:45:10;;;;;;;5.40;3.20;;;;;;;24.78;43.16;98751.48;106634;1274;22561;-91
2022/09/05 12:48:21;;;;;;;5.50;3.30;;;;;;;24.98;43.17;98754.03;106337;1274;22877;-91
2022/09/05 12:51:18;;;;;;;5.30;3.30;;;;;;;25.04;42.94;98747.33;107137;1274;25537;-90
2022/09/05 12:54:40;;;;;;;6.60;3.50;;;;;;;24.95;43.19;98747.62;107316;1274;22606;-91
2022/09/05 12:57:33;;;;;;;4.50;3.00;;;;;;;24.94;42.07;98747.29;106468;1274;25455;-90
2022/09/05 13:00:44;;;;;;;4.90;3.10;;;;;;;24.89;41.72;98748.95;106336;1274;22650;-93
2022/09/05 13:04:17;;;;;;;4.60;2.80;;;;;;;24.61;42.42;98749.20;106799;1274;25449;-91
2022/09/05 13:07:12;;;;;;;4.90;3.30;;;;;;;24.40;43.54;98749.88;106442;1274;22554;-90
2022/09/05 13:10:04;;;;;;;6.80;3.40;;;;;;;24.50;43.57;98745.17;106321;1274;24221;-91
2022/09/05 13:13:27;;;;;;;6.10;3.50;;;;;;;24.88;43.76;98741.30;106359;1274;22871;-90
2022/09/05 13:16:38;;;;;;;4.80;2.80;;;;;;;25.31;42.81;98737.62;109082;1274;23120;-91
2022/09/05 13:19:42;;;;;;;5.20;3.00;;;;;;;25.61;42.74;98734.38;106223;1274;22573;-91
2022/09/05 13:22:29;;;;;;;8.30;3.10;;;;;;;25.96;41.80;98733.33;106204;1274;24252;-88
2022/09/05 13:25:28;;;;;;;8.50;4.20;;;;;;;26.36;41.59;98734.29;106297;1277;22728;-91
2022/09/05 13:28:15;;;;;;;3.90;2.80;;;;;;;26.67;40.85;98734.27;106139;1277;22559;-91
2022/09/05 13:31:07;;;;;;;8.20;2.90;;;;;;;26.82;40.16;98731.12;106212;1277;24418;-90
2022/09/05 13:34:19;;;;;;;5.40;2.80;;;;;;;26.83;40.43;98730.02;106421;1277;23294;-91
2022/09/05 13:37:28;;;;;;;6.90;3.30;;;;;;;26.88;39.98;98729.41;106215;1277;22707;-90
2022/09/05 13:40:45;;;;;;;8.20;3.20;;;;;;;26.92;39.54;98730.38;106239;1277;22853;-89
2022/09/05 13:43:37;;;;;;;6.60;3.30;;;;;;;27.08;39.75;98730.92;106193;1277;22552;-91
2022/09/05 13:46:36;;;;;;;8.60;3.00;;;;;;;27.06;38.02;98732.02;106221;1277;22758;-91
2022/09/05 13:49:31;;;;;;;7.10;3.20;;;;;;;27.11;38.12;98728.64;106134;1278;24308;-90
2022/09/05 13:52:24;;;;;;;4.40;2.80;;;;;;;26.93;36.89;98730.00;106234;1277;22691;-90
2022/09/05 13:55:36;;;;;;;5.90;2.90;;;;;;;26.80;37.88;98729.45;106247;1277;22666;-89
2022/09/05 13:58:45;;;;;;;6.60;2.80;;;;;;;26.95;37.29;98725.27;106255;1277;22557;-89
2022/09/05 14:01:50;;;;;;;5.60;2.90;;;;;;;27.28;38.30;98726.44;106237;1277;22851;-90
2022/09/05 14:05:17;;;;;;;5.60;3.00;;;;;;;27.56;37.39;98721.05;106240;1277;23072;-89
2022/09/05 14:08:32;;;;;;;3.20;2.50;;;;;;;27.65;37.29;98722.42;106159;1278;24405;-89
2022/09/05 14:11:37;;;;;;;4.10;2.80;;;;;;;27.91;36.83;98722.71;106276;1277;24721;-92
2022/09/05 14:14:41;;;;;;;5.40;2.60;;;;;;;28.08;36.74;98723.91;106170;1277;22612;-90
2022/09/05 14:17:53;;;;;;;3.80;2.40;;;;;;;28.03;34.52;98720.66;106254;1277;26551;-90
2022/09/05 14:24:14;;;;;;;5.10;2.40;;;;;;;27.88;35.47;98718.13;106239;1274;25377;-90
2022/09/05 14:27:15;;;;;;;3.30;2.50;;;;;;;28.05;35.81;98719.33;106335;1274;22648;-89
2022/09/05 14:29:54;;;;;;;4.10;2.70;;;;;;;28.32;35.16;98716.52;106340;1274;22717;-89
2022/09/05 14:33:17;;;;;;;4.10;2.40;;;;;;;28.53;35.13;98712.81;106276;1274;25238;-89
2022/09/05 14:36:32;;;;;;;4.40;2.80;;;;;;;28.65;34.54;98712.46;106097;1275;22553;-90
2022/09/05 14:39:38;;;;;;;6.50;2.70;;;;;;;28.70;34.23;98711.83;106941;1274;22616;-87
2022/09/05 14:42:45;;;;;;;5.50;2.70;;;;;;;28.51;33.56;98702.83;106114;1277;22682;-88
2022/09/05 14:45:53;;;;;;;6.00;2.50;;;;;;;28.25;34.04;98700.08;106302;1274;24358;-89
2022/09/05 14:49:10;;;;;;;3.80;2.50;;;;;;;28.09;33.38;98695.65;106340;1274;25452;-89
2022/09/05 14:51:45;;;;;;;5.20;2.50;;;;;;;27.62;33.64;98696.48;105533;1281;25334;-88
2022/09/05 14:54:25;;;;;;;5.10;2.80;;;;;;;27.04;34.08;98688.71;105779;1281;22560;-88
2022/09/05 14:57:19;;;;;;;4.50;2.90;;;;;;;26.73;34.67;98692.60;105562;1281;23220;-89
2022/09/05 15:00:13;;;;;;;4.60;3.00;;;;;;;26.94;34.46;98692.70;105632;1281;22884;-90
2022/09/05 15:03:01;;;;;;;3.40;2.80;;;;;;;27.00;34.48;98691.30;105654;1281;24221;-88
2022/09/05 15:05:39;;;;;;;8.20;3.20;;;;;;;27.14;34.23;98689.54;105724;1281;22753;-90
2022/09/05 15:08:11;;;;;;;5.10;3.30;;;;;;;27.24;33.98;98690.55;105775;1281;22574;-92
2022/09/05 15:11:08;;;;;;;6.10;2.70;;;;;;;27.29;33.63;98691.20;105962;1281;24400;-89
2022/09/05 15:14:04;;;;;;;5.20;3.00;;;;;;;26.63;33.84;98690.58;105674;1281;22559;-91
2022/09/05 15:16:39;;;;;;;4.90;3.10;;;;;;;26.38;34.07;98691.81;105672;1281;23488;-88
2022/09/05 15:19:10;;;;;;;4.90;3.00;;;;;;;26.39;34.24;98694.52;105798;1281;22537;-90
2022/09/05 15:21:40;;;;;;;3.80;2.80;;;;;;;26.24;34.18;98693.70;105627;1281;22749;-89
2022/09/05 15:24:22;;;;;;;6.50;3.10;;;;;;;26.26;34.32;98692.62;105704;1281;25384;-90
2022/09/05 15:26:50;;;;;;;8.10;2.80;;;;;;;26.37;34.32;98688.41;105751;1281;22497;-89
2022/09/05 15:29:24;;;;;;;4.90;3.20;;;;;;;26.49;34.20;98687.32;106107;1275;23473;-89
2022/09/05 15:32:12;;;;;;;5.30;3.10;;;;;;;26.50;34.10;98688.84;106228;1274;25360;-89
2022/09/05 15:34:40;;;;;;;4.40;2.80;;;;;;;26.86;34.25;98685.23;106323;1274;22566;-88
2022/09/05 15:37:29;;;;;;;4.10;2.80;;;;;;;27.27;34.19;98684.54;106308;1274;22608;-90
2022/09/05 15:40:06;;;;;;;5.30;3.30;;;;;;;27.34;33.56;98683.45;106198;1274;22701;-89
2022/09/05 15:42:50;;;;;;;6.00;2.90;;;;;;;27.50;33.00;98681.36;106230;1275;24288;-89
2022/09/05 15:45:24;;;;;;;5.00;2.70;;;;;;;27.34;33.28;98678.08;106238;1274;25393;-89
2022/09/05 15:48:24;;;;;;;5.00;3.20;;;;;;;27.35;33.24;98676.80;106199;1274;22582;-90
2022/09/05 15:51:15;;;;;;;5.60;2.70;;;;;;;27.45;33.35;98679.67;106834;1274;22999;-90
2022/09/05 15:53:43;;;;;;;6.10;3.10;;;;;;;27.66;33.36;98673.21;106198;1274;22694;-90
2022/09/05 15:56:18;;;;;;;4.80;3.30;;;;;;;27.48;32.79;98673.20;106206;1274;22655;-87
2022/09/05 15:58:53;;;;;;;7.60;3.10;;;;;;;27.24;33.51;98675.13;106270;1274;22611;-88
2022/09/05 16:01:29;;;;;;;8.60;3.30;;;;;;;27.14;33.48;98674.20;106247;1277;25223;-89
2022/09/05 16:04:23;;;;;;;7.30;3.50;;;;;;;26.86;33.70;98665.33;106173;1274;25343;-89